createdAt,value
2023-05-17T00:00:01.129Z,11.17
2023-05-17T00:01:00.419Z,11.16
2023-05-17T00:02:01.086Z,11.15
2023-05-17T00:03:01.176Z,11.13
2023-05-17T00:04:00.392Z,11.12
2023-05-17T00:05:00.416Z,11.10
2023-05-17T00:06:00.453Z,11.09
2023-05-17T00:07:01.044Z,11.08
2023-05-17T00:08:01.041Z,11.06
2023-05-17T00:09:00.361Z,11.04
2023-05-17T00:10:00.341Z,11.03
2023-05-17T00:11:00.337Z,11.01
2023-05-17T00:12:00.306Z,11.00
2023-05-17T00:13:01.004Z,10.98
2023-05-17T00:14:00.293Z,10.97
2023-05-17T00:15:00.295Z,10.95
2023-05-17T00:16:00.280Z,10.94
2023-05-17T00:17:00.950Z,10.93
2023-05-17T00:18:01.048Z,10.91
2023-05-17T00:19:00.366Z,10.90
2023-05-17T00:20:00.235Z,10.89
2023-05-17T00:21:00.883Z,10.88
2023-05-17T00:22:00.889Z,10.88
2023-05-17T00:23:00.945Z,10.86
2023-05-17T00:24:00.180Z,10.85
2023-05-17T00:25:00.244Z,10.84
2023-05-17T00:26:00.853Z,10.84
2023-05-17T00:27:00.139Z,10.83
2023-05-17T00:28:00.131Z,10.82
2023-05-17T00:29:00.851Z,10.82
2023-05-17T00:30:00.190Z,10.81
2023-05-17T00:31:00.800Z,10.82
2023-05-17T00:32:00.794Z,10.81
2023-05-17T00:33:00.823Z,10.80
2023-05-17T00:34:00.072Z,10.80
2023-05-17T00:35:00.756Z,10.80
2023-05-17T00:36:00.744Z,10.79
2023-05-17T00:37:00.041Z,10.78
2023-05-17T00:38:00.717Z,10.78
2023-05-17T00:39:00.041Z,10.78
2023-05-17T00:40:00.700Z,10.78
2023-05-17T00:40:59.991Z,10.78
2023-05-17T00:42:00.004Z,10.78
2023-05-17T00:43:00.681Z,10.80
2023-05-17T00:44:00.639Z,10.80
2023-05-17T00:44:59.963Z,10.80
2023-05-17T00:46:00.636Z,10.81
2023-05-17T00:47:00.082Z,10.82
2023-05-17T00:48:00.679Z,10.84
2023-05-17T00:49:00.587Z,10.83
2023-05-17T00:49:59.906Z,10.86
2023-05-17T00:50:59.899Z,10.87
2023-05-17T00:52:00.581Z,10.88
2023-05-17T00:53:00.541Z,10.89
2023-05-17T00:53:59.849Z,10.89
2023-05-17T00:54:59.862Z,10.89
2023-05-17T00:55:59.833Z,10.89
2023-05-17T00:56:59.838Z,10.88
2023-05-17T00:57:59.868Z,10.87
2023-05-17T00:59:00.535Z,10.87
2023-05-17T01:00:00.505Z,10.84
2023-05-17T01:01:00.479Z,10.84
2023-05-17T01:02:00.441Z,10.84
2023-05-17T01:02:59.895Z,10.83
2023-05-17T01:04:00.497Z,10.83
2023-05-17T01:05:00.601Z,10.82
2023-05-17T01:06:00.445Z,10.81
2023-05-17T01:07:00.398Z,10.80
2023-05-17T01:08:00.400Z,10.79
2023-05-17T01:08:59.719Z,10.79
2023-05-17T01:09:59.681Z,10.77
2023-05-17T01:11:00.378Z,10.77
2023-05-17T01:12:00.354Z,10.78
2023-05-17T01:12:59.653Z,10.77
2023-05-17T01:14:00.331Z,10.78
2023-05-17T01:15:00.327Z,10.79
2023-05-17T01:15:59.648Z,10.78
2023-05-17T01:16:59.629Z,10.77
2023-05-17T01:17:59.705Z,10.76
2023-05-17T01:18:59.646Z,10.77
2023-05-17T01:19:59.699Z,10.76
2023-05-17T01:21:00.244Z,10.76
2023-05-17T01:22:00.249Z,10.76
2023-05-17T01:22:59.548Z,10.76
2023-05-17T01:24:00.231Z,10.76
2023-05-17T01:24:59.541Z,10.76
2023-05-17T01:26:00.186Z,10.78
2023-05-17T01:26:59.506Z,10.78
2023-05-17T01:28:00.187Z,10.79
2023-05-17T01:29:00.171Z,10.80
2023-05-17T01:30:00.181Z,10.82
2023-05-17T01:30:59.458Z,10.83
2023-05-17T01:31:59.455Z,10.85
2023-05-17T01:33:00.189Z,10.85
2023-05-17T01:33:59.471Z,10.86
2023-05-17T01:35:00.087Z,10.85
2023-05-17T01:35:59.397Z,10.85
2023-05-17T01:37:00.088Z,10.83
2023-05-17T01:38:00.081Z,10.84
2023-05-17T01:38:59.414Z,10.82
2023-05-17T01:40:00.040Z,10.82
2023-05-17T01:41:00.045Z,10.81
2023-05-17T01:42:00.039Z,10.80
2023-05-17T01:42:59.330Z,10.79
2023-05-17T01:43:59.346Z,10.79
2023-05-17T01:44:59.995Z,10.78
2023-05-17T01:45:59.991Z,10.77
2023-05-17T01:46:59.289Z,10.76
2023-05-17T01:48:00.021Z,10.75
2023-05-17T01:48:59.998Z,10.73
2023-05-17T01:49:59.945Z,10.71
2023-05-17T01:50:59.937Z,10.70
2023-05-17T01:51:59.926Z,10.69
2023-05-17T01:52:59.893Z,10.67
2023-05-17T01:53:59.883Z,10.66
2023-05-17T01:54:59.205Z,10.65
2023-05-17T01:55:59.882Z,10.65
2023-05-17T01:56:59.875Z,10.63
2023-05-17T01:57:59.852Z,10.63
2023-05-17T01:58:59.849Z,10.62
2023-05-17T01:59:59.836Z,10.61
2023-05-17T02:00:59.834Z,10.60
2023-05-17T02:01:59.819Z,10.60
2023-05-17T02:02:59.824Z,10.59
2023-05-17T02:03:59.826Z,10.57
2023-05-17T02:04:59.838Z,10.57
2023-05-17T02:05:59.773Z,10.55
2023-05-17T02:06:59.105Z,10.55
2023-05-17T02:07:59.087Z,10.55
2023-05-17T02:08:59.774Z,10.55
2023-05-17T02:09:59.734Z,10.56
2023-05-17T02:10:59.030Z,10.57
2023-05-17T02:11:59.695Z,10.58
2023-05-17T02:12:59.698Z,10.60
2023-05-17T02:13:59.024Z,10.61
2023-05-17T02:14:59.676Z,10.62
2023-05-17T02:15:59.061Z,10.63
2023-05-17T02:16:59.642Z,10.63
2023-05-17T02:17:59.109Z,10.63
2023-05-17T02:18:59.780Z,10.62
2023-05-17T02:19:58.944Z,10.62
2023-05-17T02:20:58.952Z,10.59
2023-05-17T02:21:58.946Z,10.58
2023-05-17T02:22:59.597Z,10.56
2023-05-17T02:23:58.902Z,10.54
2023-05-17T02:24:58.898Z,10.53
2023-05-17T02:25:59.543Z,10.50
2023-05-17T02:26:59.551Z,10.49
2023-05-17T02:27:58.849Z,10.48
2023-05-17T02:28:59.531Z,10.47
2023-05-17T02:29:59.526Z,10.45
2023-05-17T02:30:59.494Z,10.43
2023-05-17T02:31:59.504Z,10.41
2023-05-17T02:32:59.633Z,10.41
2023-05-17T02:33:58.825Z,10.38
2023-05-17T02:34:58.816Z,10.37
2023-05-17T02:35:59.442Z,10.36
2023-05-17T02:36:59.452Z,10.35
2023-05-17T02:37:59.443Z,10.35
2023-05-17T02:38:59.428Z,10.33
2023-05-17T02:39:59.406Z,10.33
2023-05-17T02:40:59.406Z,10.32
2023-05-17T02:41:58.756Z,10.31
2023-05-17T02:42:58.704Z,10.31
2023-05-17T02:43:59.385Z,10.30
2023-05-17T02:44:59.345Z,10.27
2023-05-17T02:45:58.665Z,10.27
2023-05-17T02:46:59.354Z,10.26
2023-05-17T02:47:59.369Z,10.24
2023-05-17T02:48:58.671Z,10.24
2023-05-17T02:49:58.641Z,10.21
2023-05-17T02:50:59.296Z,10.20
2023-05-17T02:51:59.281Z,10.19
2023-05-17T02:52:58.592Z,10.17
2023-05-17T02:53:58.591Z,10.17
2023-05-17T02:54:59.252Z,10.16
2023-05-17T02:55:58.568Z,10.14
2023-05-17T02:56:58.545Z,10.13
2023-05-17T02:57:59.224Z,10.11
2023-05-17T02:58:59.190Z,10.09
2023-05-17T02:59:58.513Z,10.07
2023-05-17T03:00:58.533Z,10.06
2023-05-17T03:01:59.190Z,10.04
2023-05-17T03:02:59.231Z,10.02
2023-05-17T03:03:59.409Z,10.01
2023-05-17T03:04:59.150Z,9.99
2023-05-17T03:06:00.908Z,9.97
2023-05-17T03:06:59.120Z,9.97
2023-05-17T03:07:59.101Z,9.95
2023-05-17T03:08:59.104Z,9.93
2023-05-17T03:09:59.094Z,9.91
2023-05-17T03:10:59.081Z,9.89
2023-05-17T03:11:58.384Z,9.88
2023-05-17T03:12:59.053Z,9.86
2023-05-17T03:13:58.409Z,9.86
2023-05-17T03:14:58.339Z,9.85
2023-05-17T03:15:59.028Z,9.83
2023-05-17T03:16:59.002Z,9.82
2023-05-17T03:17:58.474Z,9.81
2023-05-17T03:18:59.172Z,9.79
2023-05-17T03:19:58.349Z,9.79
2023-05-17T03:20:58.288Z,9.78
2023-05-17T03:21:58.947Z,9.76
2023-05-17T03:22:58.258Z,9.77
2023-05-17T03:23:58.250Z,9.76
2023-05-17T03:24:58.254Z,9.75
2023-05-17T03:25:58.312Z,9.75
2023-05-17T03:26:58.897Z,9.74
2023-05-17T03:27:58.239Z,9.73
2023-05-17T03:28:58.225Z,9.73
2023-05-17T03:29:58.208Z,9.72
2023-05-17T03:30:58.915Z,9.73
2023-05-17T03:31:58.850Z,9.73
2023-05-17T03:32:59.060Z,9.72
2023-05-17T03:33:58.224Z,9.72
2023-05-17T03:34:58.130Z,9.71
2023-05-17T03:35:58.149Z,9.72
2023-05-17T03:36:58.111Z,9.71
2023-05-17T03:37:58.104Z,9.71
2023-05-17T03:38:58.781Z,9.71
2023-05-17T03:39:58.088Z,9.71
2023-05-17T03:40:58.744Z,9.71
2023-05-17T03:41:58.077Z,9.71
2023-05-17T03:42:58.051Z,9.72
2023-05-17T03:43:58.728Z,9.72
2023-05-17T03:44:58.696Z,9.73
2023-05-17T03:45:58.033Z,9.74
2023-05-17T03:46:58.028Z,9.75
2023-05-17T03:47:58.709Z,9.77
2023-05-17T03:48:58.684Z,9.78
2023-05-17T03:49:57.996Z,9.80
2023-05-17T03:50:58.642Z,9.82
2023-05-17T03:51:57.963Z,9.83
2023-05-17T03:52:57.940Z,9.86
2023-05-17T03:53:58.628Z,9.87
2023-05-17T03:54:58.583Z,9.89
2023-05-17T03:55:57.934Z,9.92
2023-05-17T03:56:58.587Z,9.95
2023-05-17T03:57:57.953Z,9.98
2023-05-17T03:58:57.956Z,10.02
2023-05-17T03:59:58.538Z,10.05
2023-05-17T04:00:57.992Z,10.08
2023-05-17T04:01:58.539Z,10.12
2023-05-17T04:02:57.896Z,10.16
2023-05-17T04:03:57.892Z,10.19
2023-05-17T04:04:57.880Z,10.24
2023-05-17T04:05:58.489Z,10.28
2023-05-17T04:06:58.470Z,10.32
2023-05-17T04:07:57.771Z,10.38
2023-05-17T04:08:58.428Z,10.44
2023-05-17T04:09:57.782Z,10.49
2023-05-17T04:10:57.741Z,10.58
2023-05-17T04:11:57.741Z,10.65
2023-05-17T04:12:58.418Z,10.73
2023-05-17T04:13:58.388Z,10.84
2023-05-17T04:14:58.385Z,10.98
2023-05-17T04:15:57.782Z,11.14
2023-05-17T04:16:58.381Z,11.33
2023-05-17T04:17:58.425Z,11.53
2023-05-17T04:18:58.433Z,11.75
2023-05-17T04:19:57.707Z,11.97
2023-05-17T04:20:57.637Z,12.20
2023-05-17T04:21:58.319Z,12.44
2023-05-17T04:22:58.328Z,12.69
2023-05-17T04:23:57.632Z,12.94
2023-05-17T04:24:58.282Z,13.18
2023-05-17T04:25:58.268Z,13.42
2023-05-17T04:26:58.290Z,13.64
2023-05-17T04:27:58.229Z,13.86
2023-05-17T04:28:58.236Z,14.08
2023-05-17T04:29:57.563Z,14.33
2023-05-17T04:30:57.541Z,14.55
2023-05-17T04:31:58.188Z,14.76
2023-05-17T04:32:58.229Z,14.98
2023-05-17T04:33:57.593Z,15.21
2023-05-17T04:34:58.175Z,15.44
2023-05-17T04:35:58.194Z,15.65
2023-05-17T04:36:58.133Z,15.85
2023-05-17T04:37:57.472Z,16.05
2023-05-17T04:38:57.432Z,16.28
2023-05-17T04:39:58.121Z,16.52
2023-05-17T04:40:57.434Z,16.77
2023-05-17T04:41:58.079Z,17.00
2023-05-17T04:42:57.426Z,17.24
2023-05-17T04:43:58.077Z,17.45
2023-05-17T04:44:58.069Z,17.69
2023-05-17T04:45:58.038Z,17.93
2023-05-17T04:46:58.057Z,18.18
2023-05-17T04:47:57.450Z,18.43
2023-05-17T04:48:58.345Z,18.67
2023-05-17T04:49:57.325Z,18.91
2023-05-17T04:50:57.982Z,19.16
2023-05-17T04:51:57.998Z,19.40
2023-05-17T04:52:57.314Z,19.59
2023-05-17T04:53:57.993Z,19.79
2023-05-17T04:54:57.293Z,19.94
2023-05-17T04:55:57.278Z,20.12
2023-05-17T04:56:57.936Z,20.28
2023-05-17T04:57:57.238Z,20.12
2023-05-17T04:58:57.944Z,20.20
2023-05-17T04:59:57.241Z,20.47
2023-05-17T05:00:57.890Z,20.71
2023-05-17T05:01:57.889Z,20.95
2023-05-17T05:02:57.218Z,21.14
2023-05-17T05:03:57.944Z,21.36
2023-05-17T05:04:57.843Z,21.57
2023-05-17T05:05:57.157Z,21.78
2023-05-17T05:06:57.830Z,22.03
2023-05-17T05:07:57.813Z,22.26
2023-05-17T05:08:57.793Z,22.49
2023-05-17T05:09:57.790Z,22.71
2023-05-17T05:10:57.786Z,22.89
2023-05-17T05:11:57.084Z,23.05
2023-05-17T05:12:57.076Z,23.27
2023-05-17T05:13:57.110Z,23.48
2023-05-17T05:14:58.507Z,23.75
2023-05-17T05:15:57.729Z,23.38
2023-05-17T05:16:57.728Z,23.62
2023-05-17T05:17:57.727Z,23.42
2023-05-17T05:18:57.196Z,23.28
2023-05-17T05:19:57.161Z,22.87
2023-05-17T05:20:57.678Z,22.61
2023-05-17T05:21:57.661Z,22.39
2023-05-17T05:22:57.631Z,22.80
2023-05-17T05:23:56.967Z,23.22
2023-05-17T05:24:57.630Z,23.41
2023-05-17T05:25:57.632Z,23.59
2023-05-17T05:26:57.605Z,23.84
2023-05-17T05:27:57.581Z,24.07
2023-05-17T05:28:56.908Z,24.26
2023-05-17T05:29:56.902Z,24.49
2023-05-17T05:30:57.561Z,24.74
2023-05-17T05:31:56.898Z,25.01
2023-05-17T05:32:57.616Z,25.29
2023-05-17T05:33:57.554Z,25.57
2023-05-17T05:34:56.830Z,25.79
2023-05-17T05:35:56.828Z,25.99
2023-05-17T05:36:57.486Z,26.18
2023-05-17T05:37:56.806Z,26.35
2023-05-17T05:38:57.484Z,26.51
2023-05-17T05:39:57.468Z,26.59
2023-05-17T05:40:56.783Z,26.65
2023-05-17T05:41:56.782Z,26.73
2023-05-17T05:42:56.745Z,26.83
2023-05-17T05:43:57.426Z,26.98
2023-05-17T05:44:57.416Z,27.13
2023-05-17T05:45:56.702Z,27.23
2023-05-17T05:46:57.374Z,27.32
2023-05-17T05:47:56.797Z,27.51
2023-05-17T05:48:57.399Z,27.71
2023-05-17T05:49:56.668Z,27.89
2023-05-17T05:50:57.337Z,28.07
2023-05-17T05:51:57.324Z,28.22
2023-05-17T05:53:03.854Z,28.37
2023-05-17T05:53:58.317Z,28.50
2023-05-17T05:54:56.702Z,28.69
2023-05-17T05:55:57.297Z,28.88
2023-05-17T05:56:57.291Z,29.05
2023-05-17T05:57:56.578Z,29.13
2023-05-17T05:58:56.570Z,29.14
2023-05-17T05:59:57.270Z,29.13
2023-05-17T06:00:57.229Z,29.22
2023-05-17T06:01:57.229Z,29.20
2023-05-17T06:02:57.273Z,29.32
2023-05-17T06:03:56.630Z,29.48
2023-05-17T06:04:57.183Z,29.61
2023-05-17T06:05:57.243Z,29.58
2023-05-17T06:06:57.218Z,29.55
2023-05-17T06:07:56.493Z,29.47
2023-05-17T06:08:59.473Z,29.45
2023-05-17T06:09:56.449Z,29.45
2023-05-17T06:10:57.141Z,29.48
2023-05-17T06:11:56.431Z,29.56
2023-05-17T06:12:56.422Z,29.75
2023-05-17T06:13:57.116Z,29.79
2023-05-17T06:14:56.408Z,29.60
2023-05-17T06:15:56.396Z,29.79
2023-05-17T06:16:56.383Z,29.90
2023-05-17T06:17:57.109Z,29.99
2023-05-17T06:18:57.106Z,29.65
2023-05-17T06:19:56.420Z,30.22
2023-05-17T06:20:56.323Z,30.75
2023-05-17T06:21:56.334Z,30.36
2023-05-17T06:22:57.006Z,29.08
2023-05-17T06:23:56.334Z,28.20
2023-05-17T06:24:56.986Z,27.75
2023-05-17T06:25:56.971Z,27.16
2023-05-17T06:26:56.962Z,26.66
2023-05-17T06:27:56.272Z,26.48
2023-05-17T06:28:56.288Z,25.85
2023-05-17T06:29:56.938Z,24.94
2023-05-17T06:30:56.922Z,24.14
2023-05-17T06:31:56.959Z,23.42
2023-05-17T06:32:56.269Z,22.82
2023-05-17T06:33:56.279Z,22.34
2023-05-17T06:34:56.201Z,21.84
2023-05-17T06:35:57.875Z,21.67
2023-05-17T06:36:56.158Z,21.36
2023-05-17T06:37:56.834Z,21.20
2023-05-17T06:38:56.144Z,20.94
2023-05-17T06:40:04.161Z,20.69
2023-05-17T06:40:59.045Z,20.62
2023-05-17T06:41:56.119Z,20.33
2023-05-17T06:42:56.113Z,20.07
2023-05-17T06:43:56.780Z,19.90
2023-05-17T06:44:56.772Z,19.44
2023-05-17T06:45:56.071Z,19.08
2023-05-17T06:46:56.098Z,18.70
2023-05-17T06:47:56.797Z,18.38
2023-05-17T06:48:56.397Z,18.17
2023-05-17T06:49:56.033Z,17.92
2023-05-17T06:50:56.018Z,17.64
2023-05-17T06:51:56.121Z,17.42
2023-05-17T06:52:56.678Z,17.27
2023-05-17T06:53:56.227Z,17.24
2023-05-17T06:54:56.652Z,17.32
2023-05-17T06:55:55.981Z,18.45
2023-05-17T06:56:56.615Z,18.25
2023-05-17T06:57:55.944Z,19.20
2023-05-17T06:58:55.952Z,21.38
2023-05-17T06:59:56.618Z,22.98
2023-05-17T07:00:55.941Z,24.27
2023-05-17T07:01:56.561Z,25.48
2023-05-17T07:02:56.004Z,26.51
2023-05-17T07:03:55.956Z,27.28
2023-05-17T07:04:56.589Z,27.79
2023-05-17T07:05:56.530Z,28.66
2023-05-17T07:06:56.531Z,28.96
2023-05-17T07:07:55.820Z,29.73
2023-05-17T07:08:55.848Z,30.42
2023-05-17T07:09:55.817Z,30.07
2023-05-17T07:10:56.468Z,30.75
2023-05-17T07:11:55.788Z,31.29
2023-05-17T07:12:55.784Z,31.80
2023-05-17T07:13:56.481Z,32.26
2023-05-17T07:14:55.770Z,32.78
2023-05-17T07:15:55.757Z,33.24
2023-05-17T07:16:56.422Z,33.68
2023-05-17T07:17:55.769Z,33.99
2023-05-17T07:18:55.775Z,34.15
2023-05-17T07:19:55.831Z,33.84
2023-05-17T07:20:55.693Z,33.62
2023-05-17T07:21:55.678Z,34.46
2023-05-17T07:22:55.657Z,33.60
2023-05-17T07:23:55.661Z,33.67
2023-05-17T07:24:55.869Z,32.78
2023-05-17T07:25:55.636Z,33.10
2023-05-17T07:26:55.644Z,31.87
2023-05-17T07:27:56.304Z,30.56
2023-05-17T07:28:56.279Z,29.50
2023-05-17T07:29:56.263Z,28.66
2023-05-17T07:30:55.589Z,27.82
2023-05-17T07:31:56.542Z,27.02
2023-05-17T07:32:56.295Z,26.22
2023-05-17T07:33:56.256Z,25.67
2023-05-17T07:34:55.567Z,24.94
2023-05-17T07:35:56.247Z,24.23
2023-05-17T07:36:55.519Z,23.65
2023-05-17T07:37:56.191Z,23.12
2023-05-17T07:38:55.520Z,22.59
2023-05-17T07:39:56.178Z,22.14
2023-05-17T07:40:56.194Z,21.77
2023-05-17T07:41:56.150Z,23.98
2023-05-17T07:42:56.123Z,26.28
2023-05-17T07:43:56.260Z,27.95
2023-05-17T07:44:56.131Z,26.33
2023-05-17T07:45:55.490Z,25.37
2023-05-17T07:46:55.459Z,24.78
2023-05-17T07:47:56.158Z,24.08
2023-05-17T07:48:58.332Z,23.75
2023-05-17T07:49:55.386Z,23.10
2023-05-17T07:50:55.387Z,22.60
2023-05-17T07:51:56.047Z,22.17
2023-05-17T07:52:55.411Z,21.78
2023-05-17T07:53:56.027Z,21.43
2023-05-17T07:54:55.337Z,21.14
2023-05-17T07:55:55.317Z,20.81
2023-05-17T07:56:55.981Z,20.50
2023-05-17T07:57:55.966Z,20.25
2023-05-17T07:58:55.966Z,20.07
2023-05-17T07:59:55.970Z,20.91
2023-05-17T08:00:55.271Z,20.60
2023-05-17T08:01:55.288Z,20.27
2023-05-17T08:02:57.768Z,20.10
2023-05-17T08:03:57.685Z,20.92
2023-05-17T08:04:56.272Z,21.51
2023-05-17T08:05:56.242Z,23.93
2023-05-17T08:06:56.190Z,25.73
2023-05-17T08:07:57.632Z,27.12
2023-05-17T08:08:57.618Z,28.22
2023-05-17T08:09:56.137Z,29.05
2023-05-17T08:10:56.128Z,29.15
2023-05-17T08:11:56.137Z,30.14
2023-05-17T08:12:56.079Z,29.12
2023-05-17T08:13:55.194Z,27.57
2023-05-17T08:14:58.057Z,26.53
2023-05-17T08:16:08.867Z,26.12
2023-05-17T08:16:56.093Z,26.62
2023-05-17T08:17:56.219Z,26.52
2023-05-17T08:18:58.152Z,26.49
2023-05-17T08:19:57.523Z,25.71
2023-05-17T08:20:56.513Z,25.11
2023-05-17T08:21:56.028Z,25.10
2023-05-17T08:22:55.988Z,25.32
2023-05-17T08:23:57.455Z,24.95
2023-05-17T08:24:57.445Z,24.57
2023-05-17T08:25:57.451Z,24.13
2023-05-17T08:26:55.933Z,24.13
2023-05-17T08:27:57.494Z,24.85
2023-05-17T08:28:57.431Z,26.19
2023-05-17T08:29:57.437Z,27.15
2023-05-17T08:30:55.629Z,27.93
2023-05-17T08:31:57.378Z,28.60
2023-05-17T08:32:55.937Z,29.19
2023-05-17T08:33:54.944Z,29.70
2023-05-17T08:34:54.917Z,29.32
2023-05-17T08:35:55.647Z,28.61
2023-05-17T08:36:55.584Z,27.88
2023-05-17T08:37:57.309Z,27.21
2023-05-17T08:38:54.871Z,26.76
2023-05-17T08:39:55.537Z,26.09
2023-05-17T08:40:54.834Z,25.49
2023-05-17T08:41:55.510Z,24.95
2023-05-17T08:42:54.814Z,24.44
2023-05-17T08:43:54.826Z,24.02
2023-05-17T08:44:55.739Z,23.64
2023-05-17T08:45:55.461Z,23.25
2023-05-17T08:46:55.731Z,22.82
2023-05-17T08:47:57.239Z,22.48
2023-05-17T08:48:57.295Z,22.40
2023-05-17T08:49:55.417Z,22.60
2023-05-17T08:50:57.325Z,22.52
2023-05-17T08:51:55.664Z,22.65
2023-05-17T08:52:55.706Z,22.84
2023-05-17T08:53:55.668Z,22.89
2023-05-17T08:54:57.134Z,23.59
2023-05-17T08:55:54.669Z,23.58
2023-05-17T08:56:55.349Z,23.46
2023-05-17T08:57:55.320Z,23.24
2023-05-17T08:58:56.940Z,22.93
2023-05-17T08:59:57.078Z,22.65
2023-05-17T09:00:55.301Z,22.46
2023-05-17T09:01:57.063Z,22.29
2023-05-17T09:02:55.364Z,22.15
2023-05-17T09:03:55.422Z,22.10
2023-05-17T09:04:55.362Z,22.61
2023-05-17T09:05:55.313Z,22.67
2023-05-17T09:06:57.020Z,22.62
2023-05-17T09:07:55.222Z,22.68
2023-05-17T09:08:55.695Z,23.37
2023-05-17T09:09:56.968Z,24.07
2023-05-17T09:10:56.978Z,24.81
2023-05-17T09:11:55.179Z,25.57
2023-05-17T09:12:56.940Z,26.30
2023-05-17T09:13:56.914Z,26.92
2023-05-17T09:14:56.902Z,27.45
2023-05-17T09:15:55.119Z,27.84
2023-05-17T09:16:56.911Z,28.20
2023-05-17T09:17:55.382Z,28.50
2023-05-17T09:18:54.531Z,28.32
2023-05-17T09:19:54.532Z,27.76
2023-05-17T09:20:55.068Z,27.27
2023-05-17T09:21:55.104Z,26.82
2023-05-17T09:22:55.062Z,26.47
2023-05-17T09:24:05.671Z,26.31
2023-05-17T09:24:55.368Z,26.28
2023-05-17T09:25:55.040Z,25.97
2023-05-17T09:26:55.036Z,25.69
2023-05-17T09:27:56.763Z,25.59
2023-05-17T09:28:54.997Z,26.08
2023-05-17T09:29:55.328Z,26.41
2023-05-17T09:30:54.977Z,26.93
2023-05-17T09:31:54.283Z,26.82
2023-05-17T09:32:54.979Z,26.53
2023-05-17T09:33:54.994Z,26.19
2023-05-17T09:34:54.285Z,25.82
2023-05-17T09:35:54.247Z,25.46
2023-05-17T09:36:54.915Z,25.10
2023-05-17T09:37:54.900Z,24.83
2023-05-17T09:38:54.876Z,24.79
2023-05-17T09:39:54.250Z,25.31
2023-05-17T09:40:54.890Z,25.87
2023-05-17T09:41:54.861Z,26.00
2023-05-17T09:42:54.849Z,26.35
2023-05-17T09:43:54.831Z,26.66
2023-05-17T09:44:54.833Z,27.07
2023-05-17T09:45:54.817Z,27.50
2023-05-17T09:46:54.805Z,27.39
2023-05-17T09:47:54.833Z,27.08
2023-05-17T09:48:54.911Z,27.13
2023-05-17T09:49:54.774Z,27.07
2023-05-17T09:50:54.805Z,27.35
2023-05-17T09:51:54.751Z,27.23
2023-05-17T09:52:54.729Z,26.77
2023-05-17T09:53:54.718Z,26.36
2023-05-17T09:54:54.721Z,25.98
2023-05-17T09:55:54.710Z,25.64
2023-05-17T09:56:54.705Z,25.37
2023-05-17T09:57:54.709Z,25.14
2023-05-17T09:58:54.685Z,24.98
2023-05-17T09:59:54.668Z,24.88
2023-05-17T10:00:54.666Z,24.81
2023-05-17T10:01:54.659Z,25.14
2023-05-17T10:02:54.696Z,25.72
2023-05-17T10:03:54.650Z,26.40
2023-05-17T10:04:54.641Z,27.10
2023-05-17T10:05:54.614Z,27.53
2023-05-17T10:06:54.578Z,27.72
2023-05-17T10:07:54.574Z,27.52
2023-05-17T10:08:54.574Z,27.72
2023-05-17T10:09:54.573Z,28.34
2023-05-17T10:10:54.549Z,28.96
2023-05-17T10:11:54.539Z,29.59
2023-05-17T10:12:54.524Z,30.22
2023-05-17T10:13:54.515Z,30.77
2023-05-17T10:14:54.527Z,31.28
2023-05-17T10:15:54.493Z,31.73
2023-05-17T10:16:54.473Z,32.18
2023-05-17T10:17:54.502Z,31.03
2023-05-17T10:18:54.502Z,31.41
2023-05-17T10:19:54.556Z,31.25
2023-05-17T10:20:54.436Z,32.07
2023-05-17T10:21:54.416Z,32.90
2023-05-17T10:22:54.862Z,32.73
2023-05-17T10:23:54.403Z,31.52
2023-05-17T10:24:54.400Z,31.03
2023-05-17T10:25:54.376Z,31.22
2023-05-17T10:26:54.377Z,31.95
2023-05-17T10:27:54.363Z,30.80
2023-05-17T10:28:54.359Z,29.81
2023-05-17T10:29:54.363Z,28.87
2023-05-17T10:30:54.318Z,27.98
2023-05-17T10:31:54.323Z,27.26
2023-05-17T10:32:54.428Z,27.38
2023-05-17T10:33:54.334Z,27.01
2023-05-17T10:35:06.086Z,28.71
2023-05-17T10:35:57.043Z,27.95
2023-05-17T10:36:54.270Z,27.25
2023-05-17T10:37:54.268Z,27.31
2023-05-17T10:38:54.316Z,26.61
2023-05-17T10:39:54.220Z,26.41
2023-05-17T10:40:54.229Z,27.03
2023-05-17T10:42:03.301Z,28.87
2023-05-17T10:42:55.204Z,29.42
2023-05-17T10:43:54.195Z,29.39
2023-05-17T10:44:54.167Z,28.97
2023-05-17T10:45:54.181Z,28.34
2023-05-17T10:46:53.500Z,27.67
2023-05-17T10:47:54.177Z,27.02
2023-05-17T10:48:54.159Z,26.59
2023-05-17T10:49:54.105Z,26.23
2023-05-17T10:51:01.521Z,25.87
2023-05-17T10:51:54.411Z,25.54
2023-05-17T10:52:54.092Z,25.24
2023-05-17T10:53:54.061Z,25.06
2023-05-17T10:54:55.245Z,24.94
2023-05-17T10:55:54.057Z,24.85
2023-05-17T10:56:54.055Z,24.81
2023-05-17T10:57:54.014Z,24.76
2023-05-17T10:58:54.007Z,24.72
2023-05-17T10:59:55.783Z,24.58
2023-05-17T11:00:55.181Z,24.35
2023-05-17T11:01:55.751Z,24.15
2023-05-17T11:02:54.011Z,23.94
2023-05-17T11:03:53.286Z,23.69
2023-05-17T11:04:54.022Z,23.42
2023-05-17T11:05:54.321Z,23.18
2023-05-17T11:06:54.049Z,22.99
2023-05-17T11:07:53.903Z,22.75
2023-05-17T11:08:53.933Z,22.52
2023-05-17T11:09:53.223Z,22.31
2023-05-17T11:10:53.235Z,22.17
2023-05-17T11:11:53.216Z,22.06
2023-05-17T11:12:53.953Z,21.97
2023-05-17T11:13:53.171Z,21.96
2023-05-17T11:14:53.861Z,21.94
2023-05-17T11:15:53.156Z,21.83
2023-05-17T11:16:53.565Z,21.69
2023-05-17T11:17:53.240Z,21.52
2023-05-17T11:18:53.319Z,21.33
2023-05-17T11:19:53.206Z,21.16
2023-05-17T11:20:54.017Z,21.04
2023-05-17T11:21:53.123Z,20.93
2023-05-17T11:22:53.762Z,20.82
2023-05-17T11:23:53.751Z,20.75
2023-05-17T11:24:53.061Z,20.65
2023-05-17T11:25:54.997Z,20.62
2023-05-17T11:26:53.704Z,20.64
2023-05-17T11:27:53.062Z,20.67
2023-05-17T11:28:53.026Z,20.74
2023-05-17T11:29:53.019Z,20.70
2023-05-17T11:30:53.025Z,20.65
2023-05-17T11:31:53.668Z,20.66
2023-05-17T11:32:53.802Z,20.72
2023-05-17T11:33:53.005Z,20.81
2023-05-17T11:34:53.624Z,20.93
2023-05-17T11:35:52.985Z,21.05
2023-05-17T11:36:52.950Z,21.13
2023-05-17T11:37:53.620Z,21.20
2023-05-17T11:39:01.461Z,21.22
2023-05-17T11:39:55.978Z,21.18
2023-05-17T11:40:52.903Z,21.19
2023-05-17T11:41:52.893Z,21.18
2023-05-17T11:42:52.869Z,21.15
2023-05-17T11:43:53.539Z,21.10
2023-05-17T11:44:52.857Z,21.04
2023-05-17T11:45:53.739Z,20.94
2023-05-17T11:46:52.825Z,20.84
2023-05-17T11:47:53.564Z,20.78
2023-05-17T11:48:53.195Z,20.73
2023-05-17T11:49:54.928Z,20.71
2023-05-17T11:50:53.468Z,20.72
2023-05-17T11:51:52.788Z,20.79
2023-05-17T11:52:53.451Z,20.93
2023-05-17T11:53:52.778Z,21.07
2023-05-17T11:54:53.428Z,21.12
2023-05-17T11:55:55.170Z,21.18
2023-05-17T11:56:53.396Z,21.29
2023-05-17T11:57:52.698Z,21.33
2023-05-17T11:58:52.723Z,21.37
2023-05-17T11:59:53.364Z,21.35
2023-05-17T12:00:52.670Z,21.29
2023-05-17T12:01:53.343Z,21.26
2023-05-17T12:02:52.672Z,21.22
2023-05-17T12:03:53.304Z,21.15
2023-05-17T12:04:52.689Z,21.09
2023-05-17T12:05:53.323Z,21.04
2023-05-17T12:06:53.350Z,21.01
2023-05-17T12:07:53.262Z,20.96
2023-05-17T12:08:53.316Z,20.92
2023-05-17T12:09:52.590Z,20.89
2023-05-17T12:10:52.554Z,20.80
2023-05-17T12:11:52.607Z,20.68
2023-05-17T12:12:52.564Z,20.54
2023-05-17T12:13:53.209Z,20.36
2023-05-17T12:14:52.513Z,20.21
2023-05-17T12:15:52.507Z,20.10
2023-05-17T12:16:52.517Z,20.10
2023-05-17T12:17:53.265Z,20.08
2023-05-17T12:18:53.247Z,20.01
2023-05-17T12:19:52.517Z,19.94
2023-05-17T12:20:52.451Z,19.91
2023-05-17T12:21:52.464Z,19.96
2023-05-17T12:22:53.128Z,20.05
2023-05-17T12:23:52.422Z,20.14
2023-05-17T12:24:53.119Z,20.21
2023-05-17T12:25:53.080Z,20.28
2023-05-17T12:26:53.052Z,20.32
2023-05-17T12:27:53.066Z,20.37
2023-05-17T12:28:52.408Z,20.36
2023-05-17T12:29:52.361Z,20.35
2023-05-17T12:30:52.374Z,20.35
2023-05-17T12:31:53.030Z,20.38
2023-05-17T12:32:52.398Z,20.43
2023-05-17T12:33:53.272Z,20.51
2023-05-17T12:34:52.287Z,20.61
2023-05-17T12:35:52.987Z,20.72
2023-05-17T12:36:52.258Z,20.78
2023-05-17T12:37:52.956Z,20.87
2023-05-17T12:38:52.246Z,20.93
2023-05-17T12:39:52.940Z,20.95
2023-05-17T12:40:52.355Z,20.93
2023-05-17T12:41:52.922Z,20.94
2023-05-17T12:42:52.204Z,20.97
2023-05-17T12:43:57.041Z,20.88
2023-05-17T12:44:55.136Z,20.73
2023-05-17T12:45:52.234Z,20.55
2023-05-17T12:46:52.165Z,20.36
2023-05-17T12:47:52.213Z,20.17
2023-05-17T12:48:52.289Z,19.97
2023-05-17T12:49:52.156Z,19.84
2023-05-17T12:50:52.126Z,19.78
2023-05-17T12:51:52.114Z,19.76
2023-05-17T12:52:52.104Z,19.76
2023-05-17T12:53:52.766Z,19.71